createdAt,value
2022-10-26T00:00:10.824Z,99144.28
2022-10-26T00:02:37.758Z,99144.88
2022-10-26T00:05:05.271Z,99149.53
2022-10-26T00:07:32.053Z,99146.91
2022-10-26T00:09:58.829Z,99150.09
2022-10-26T00:12:25.529Z,99151.75
2022-10-26T00:14:52.307Z,99144.88
2022-10-26T00:17:19.029Z,99148.69
2022-10-26T00:19:45.829Z,99155.34
2022-10-26T00:22:12.646Z,99145.72
2022-10-26T00:24:39.615Z,99147.25
2022-10-26T00:27:06.271Z,99150.09
2022-10-26T00:29:33.082Z,99153.69
2022-10-26T00:31:59.917Z,99152.59
2022-10-26T00:34:26.807Z,99150.06
2022-10-26T00:36:53.631Z,99159.69
2022-10-26T00:39:20.415Z,99150.59
2022-10-26T00:41:48.067Z,99153.53
2022-10-26T00:44:42.952Z,99158.31
2022-10-26T00:47:11.932Z,99150.91
2022-10-26T00:49:38.679Z,99152.00
2022-10-26T00:52:07.268Z,99143.94
2022-10-26T00:54:34.000Z,99148.69
2022-10-26T00:57:01.166Z,99151.03
2022-10-26T00:59:27.855Z,99150.69
2022-10-26T01:01:54.829Z,99158.81
2022-10-26T01:04:21.961Z,99155.25
2022-10-26T01:06:48.898Z,99147.19
2022-10-26T01:09:16.353Z,99145.00
2022-10-26T01:11:43.172Z,99144.50
2022-10-26T01:14:10.695Z,99144.50
2022-10-26T01:16:59.241Z,99144.91
2022-10-26T01:20:16.285Z,99133.84
2022-10-26T01:22:50.254Z,99125.66
2022-10-26T01:25:29.416Z,99119.88
2022-10-26T01:27:56.349Z,99126.75
2022-10-26T01:30:37.099Z,99122.66
2022-10-26T01:33:24.224Z,99111.88
2022-10-26T01:36:21.131Z,99119.59
2022-10-26T01:38:55.855Z,99113.78
2022-10-26T01:41:34.730Z,99115.72
2022-10-26T01:44:24.749Z,99117.56
2022-10-26T01:46:53.966Z,99116.91
2022-10-26T01:49:23.917Z,99109.50
2022-10-26T01:51:50.892Z,99107.78
2022-10-26T01:54:17.827Z,99105.94
2022-10-26T01:56:51.154Z,99113.69
2022-10-26T01:59:46.712Z,99112.31
2022-10-26T02:02:44.625Z,99113.00
2022-10-26T02:05:26.862Z,99117.38
2022-10-26T02:08:05.188Z,99106.44
2022-10-26T02:11:08.915Z,99100.13
2022-10-26T02:14:00.556Z,99103.00
2022-10-26T02:16:47.685Z,99102.47
2022-10-26T02:19:19.580Z,99103.63
2022-10-26T02:21:49.507Z,99112.28
2022-10-26T02:24:17.243Z,99104.38
2022-10-26T02:26:47.011Z,99104.25
2022-10-26T02:29:16.852Z,99101.97
2022-10-26T02:31:44.430Z,99108.06
2022-10-26T02:34:12.519Z,99099.53
2022-10-26T02:36:42.891Z,99097.88
2022-10-26T02:39:10.941Z,99097.06
2022-10-26T02:41:37.990Z,99092.56
2022-10-26T02:44:19.963Z,99096.63
2022-10-26T02:46:46.852Z,99087.81
2022-10-26T02:49:14.002Z,99075.28
2022-10-26T02:51:46.372Z,99085.44
2022-10-26T02:54:42.585Z,99080.22
2022-10-26T02:57:15.807Z,99071.06
2022-10-26T02:59:44.623Z,99070.81
2022-10-26T03:02:12.269Z,99065.97
2022-10-26T03:04:39.470Z,99065.91
2022-10-26T03:07:06.121Z,99066.72
2022-10-26T03:09:32.984Z,99063.78
2022-10-26T03:11:59.712Z,99063.50
2022-10-26T03:14:27.201Z,99063.72
2022-10-26T03:16:53.951Z,99061.13
2022-10-26T03:19:20.752Z,99075.97
2022-10-26T03:21:47.519Z,99068.72
2022-10-26T03:24:14.290Z,99076.13
2022-10-26T03:26:41.025Z,99074.19
2022-10-26T03:29:09.167Z,99075.75
2022-10-26T03:31:36.286Z,99073.94
2022-10-26T03:34:03.287Z,99075.09
2022-10-26T03:36:30.367Z,99072.78
2022-10-26T03:38:57.087Z,99063.09
2022-10-26T03:41:23.752Z,99067.31
2022-10-26T03:43:50.578Z,99059.59
2022-10-26T03:46:17.886Z,99059.34
2022-10-26T03:48:44.652Z,99060.44
2022-10-26T03:51:11.327Z,99056.28
2022-10-26T03:53:38.030Z,99066.91
2022-10-26T03:56:05.174Z,99055.19
2022-10-26T03:58:32.096Z,99059.34
2022-10-26T04:00:59.097Z,99064.19
2022-10-26T04:03:25.894Z,99064.88
2022-10-26T04:05:52.599Z,99064.81
2022-10-26T04:08:19.388Z,99065.03
2022-10-26T04:10:46.454Z,99067.19
2022-10-26T04:13:13.353Z,99068.84
2022-10-26T04:15:40.039Z,99069.53
2022-10-26T04:18:06.995Z,99063.78
2022-10-26T04:20:34.820Z,99065.19
2022-10-26T04:23:06.269Z,99061.63
2022-10-26T04:25:34.079Z,99059.72
2022-10-26T04:28:01.910Z,99065.75
2022-10-26T04:30:28.648Z,99070.31
2022-10-26T04:32:55.483Z,99065.41
2022-10-26T04:35:22.289Z,99066.78
2022-10-26T04:37:48.976Z,99060.06
2022-10-26T04:40:16.757Z,99062.53
2022-10-26T04:42:44.900Z,99066.97
2022-10-26T04:45:13.898Z,99063.13
2022-10-26T04:47:41.279Z,99061.19
2022-10-26T04:50:09.354Z,99057.91
2022-10-26T04:52:36.290Z,99056.22
2022-10-26T04:55:06.281Z,99060.00
2022-10-26T04:57:34.203Z,99055.19
2022-10-26T05:00:01.795Z,99058.25
2022-10-26T05:02:29.249Z,99055.47
2022-10-26T05:04:56.182Z,99061.13
2022-10-26T05:07:23.006Z,99051.84
2022-10-26T05:09:49.759Z,99057.41
2022-10-26T05:12:16.604Z,99050.06
2022-10-26T05:14:43.406Z,99055.47
2022-10-26T05:17:10.108Z,99050.81
2022-10-26T05:19:37.228Z,99050.53
2022-10-26T05:22:04.350Z,99055.00
2022-10-26T05:24:31.208Z,99050.19
2022-10-26T05:26:57.973Z,99053.78
2022-10-26T05:29:24.694Z,99055.44
2022-10-26T05:31:51.784Z,99055.44
2022-10-26T05:34:18.430Z,99064.69
2022-10-26T05:36:45.163Z,99059.72
2022-10-26T05:39:11.857Z,99061.41
2022-10-26T05:41:38.562Z,99053.81
2022-10-26T05:44:05.598Z,99056.66
2022-10-26T05:46:32.371Z,99052.44
2022-10-26T05:48:59.510Z,99059.38
2022-10-26T05:51:26.341Z,99063.72
2022-10-26T05:53:55.821Z,99055.34
2022-10-26T05:56:34.310Z,99063.19
2022-10-26T05:59:01.391Z,99058.28
2022-10-26T06:02:12.832Z,99064.69
2022-10-26T06:04:49.116Z,99064.38
2022-10-26T06:07:17.790Z,99064.25
2022-10-26T06:09:45.329Z,99066.34
2022-10-26T06:12:14.490Z,99070.25
2022-10-26T06:14:44.509Z,99070.81
2022-10-26T06:17:46.535Z,99075.66
2022-10-26T06:20:51.010Z,99074.84
2022-10-26T06:23:49.502Z,99080.66
2022-10-26T06:26:47.281Z,99084.38
2022-10-26T06:29:55.480Z,99084.25
2022-10-26T06:32:25.236Z,99090.03
2022-10-26T06:34:54.239Z,99100.66
2022-10-26T06:37:21.630Z,99094.75
2022-10-26T06:39:52.694Z,99103.47
2022-10-26T06:42:22.236Z,99108.31
2022-10-26T06:44:49.799Z,99113.84
2022-10-26T06:47:27.274Z,99120.50
2022-10-26T06:50:13.469Z,99110.44
2022-10-26T06:52:58.605Z,99111.00
2022-10-26T06:55:27.452Z,99113.88
2022-10-26T06:57:54.520Z,99110.94
2022-10-26T07:00:23.417Z,99115.53
2022-10-26T07:02:50.624Z,99116.81
2022-10-26T07:05:17.750Z,99117.47
2022-10-26T07:07:46.211Z,99111.13
2022-10-26T07:10:14.673Z,99121.75
2022-10-26T07:12:41.397Z,99119.00
2022-10-26T07:15:12.478Z,99126.31
2022-10-26T07:17:46.851Z,99127.44
2022-10-26T07:20:14.769Z,99127.31
2022-10-26T07:22:43.028Z,99128.28
2022-10-26T07:25:10.527Z,99128.84
2022-10-26T07:27:37.208Z,99123.47
2022-10-26T07:30:05.270Z,99118.69
2022-10-26T07:32:33.182Z,99132.78
2022-10-26T07:34:59.954Z,99132.22
2022-10-26T07:37:27.110Z,99126.25
2022-10-26T07:39:53.782Z,99131.81
2022-10-26T07:42:20.566Z,99125.31
2022-10-26T07:44:47.258Z,99136.78
2022-10-26T07:47:13.967Z,99126.44
2022-10-26T07:49:40.855Z,99129.19
2022-10-26T07:52:07.581Z,99139.72
2022-10-26T07:54:34.476Z,99132.53
2022-10-26T07:57:01.549Z,99127.00
2022-10-26T07:59:28.425Z,99124.94
2022-10-26T08:01:55.254Z,99130.19
2022-10-26T08:04:22.140Z,99128.13
2022-10-26T08:06:49.446Z,99127.00
2022-10-26T08:09:16.168Z,99127.03
2022-10-26T08:11:42.802Z,99136.84
2022-10-26T08:14:10.903Z,99145.81
2022-10-26T08:16:40.214Z,99138.22
2022-10-26T08:19:07.911Z,99144.13
2022-10-26T08:21:39.568Z,99136.97
2022-10-26T08:24:07.662Z,99141.22
2022-10-26T08:26:34.438Z,99149.66
2022-10-26T08:29:01.138Z,99147.97
2022-10-26T08:31:28.187Z,99142.47
2022-10-26T08:33:54.956Z,99147.81
2022-10-26T08:36:25.477Z,99144.94
2022-10-26T08:38:52.829Z,99147.25
2022-10-26T08:41:28.214Z,99158.72
2022-10-26T08:43:57.509Z,99157.59
2022-10-26T08:46:38.512Z,99161.06
2022-10-26T08:49:15.346Z,99161.19
2022-10-26T08:51:43.024Z,99162.97
2022-10-26T08:54:19.424Z,99148.19
2022-10-26T08:56:58.806Z,99157.84
2022-10-26T09:00:15.338Z,99155.78
2022-10-26T09:02:42.245Z,99153.56
2022-10-26T09:05:16.911Z,99155.63
2022-10-26T09:07:53.930Z,99179.72
2022-10-26T09:10:53.994Z,99166.31
2022-10-26T09:13:30.551Z,99174.44
2022-10-26T09:16:26.182Z,99183.13
2022-10-26T09:19:28.712Z,99183.91
2022-10-26T09:22:08.084Z,99181.00
2022-10-26T09:24:42.742Z,99177.09
2022-10-26T09:27:30.388Z,99189.44
2022-10-26T09:30:00.095Z,99187.25
2022-10-26T09:32:35.005Z,99194.56
2022-10-26T09:35:11.289Z,99194.78
2022-10-26T09:37:41.026Z,99190.63
2022-10-26T09:40:21.226Z,99192.28
2022-10-26T09:42:58.955Z,99184.91
2022-10-26T09:45:38.424Z,99193.34
2022-10-26T09:48:16.183Z,99179.44
2022-10-26T09:50:47.434Z,99176.22
2022-10-26T09:53:14.522Z,99171.59
2022-10-26T09:55:43.660Z,99173.22
2022-10-26T09:58:15.649Z,99178.88
2022-10-26T10:00:43.115Z,99175.44
2022-10-26T10:03:27.384Z,99186.31
2022-10-26T10:05:54.889Z,99187.78
2022-10-26T10:08:23.728Z,99189.13
2022-10-26T10:11:05.568Z,99187.25
2022-10-26T10:13:34.626Z,99195.78
2022-10-26T10:16:07.394Z,99194.06
2022-10-26T10:18:35.271Z,99199.72
2022-10-26T10:21:02.558Z,99190.53
2022-10-26T10:23:34.882Z,99190.28
2022-10-26T10:26:02.786Z,99199.84
2022-10-26T10:28:30.413Z,99200.88
2022-10-26T10:31:03.299Z,99208.03
2022-10-26T10:33:38.692Z,99203.59
2022-10-26T10:36:09.663Z,99209.38
2022-10-26T10:38:42.174Z,99213.38
2022-10-26T10:41:27.507Z,99201.53
2022-10-26T10:44:06.364Z,99200.41
2022-10-26T10:46:33.207Z,99199.06
2022-10-26T10:49:05.550Z,99198.94
2022-10-26T10:51:40.081Z,99200.81
2022-10-26T10:54:18.466Z,99193.56
2022-10-26T10:56:52.003Z,99192.97
2022-10-26T11:00:00.793Z,99193.63
2022-10-26T11:03:23.346Z,99182.78
2022-10-26T11:06:16.365Z,99185.78
2022-10-26T11:08:49.286Z,99185.16
2022-10-26T11:11:45.766Z,99186.00
2022-10-26T11:14:26.649Z,99203.84
2022-10-26T11:17:02.867Z,99201.06
2022-10-26T11:19:33.318Z,99202.16
2022-10-26T11:22:00.522Z,99204.50
2022-10-26T11:24:42.464Z,99206.66
2022-10-26T11:27:17.119Z,99204.22
2022-10-26T11:30:18.740Z,99208.56
2022-10-26T11:32:58.390Z,99200.78
2022-10-26T11:35:31.451Z,99207.75
2022-10-26T11:38:46.211Z,99198.34
2022-10-26T11:41:45.339Z,99209.28
2022-10-26T11:44:17.962Z,99213.75
2022-10-26T11:46:54.406Z,99209.28
2022-10-26T11:49:33.041Z,99193.13
2022-10-26T11:52:11.002Z,99204.00
2022-10-26T11:54:41.455Z,99208.63
2022-10-26T11:57:10.106Z,99214.88
2022-10-26T11:59:44.491Z,99212.84
2022-10-26T12:02:22.162Z,99205.22
2022-10-26T12:04:53.713Z,99197.91
2022-10-26T12:07:25.483Z,99208.13
2022-10-26T12:09:52.861Z,99211.75
2022-10-26T12:13:01.544Z,99213.41
2022-10-26T12:15:35.357Z,99216.72
2022-10-26T12:19:01.569Z,99223.13
2022-10-26T12:21:30.335Z,99209.06
2022-10-26T12:23:59.448Z,99204.69
2022-10-26T12:26:38.925Z,99196.34
2022-10-26T12:29:31.188Z,99210.53
2022-10-26T12:31:58.412Z,99200.53
2022-10-26T12:35:10.942Z,99198.81
2022-10-26T12:37:38.329Z,99204.78
2022-10-26T12:40:53.337Z,99207.44
2022-10-26T12:43:41.363Z,99203.88
2022-10-26T12:46:14.210Z,99213.50
2022-10-26T12:48:48.334Z,99207.31
2022-10-26T12:51:42.086Z,99215.75
2022-10-26T12:54:36.250Z,99216.50
2022-10-26T12:57:18.122Z,99210.78
2022-10-26T13:00:00.480Z,99218.50
2022-10-26T13:03:09.384Z,99217.38
2022-10-26T13:06:11.496Z,99216.56
2022-10-26T13:08:56.359Z,99212.34
2022-10-26T13:11:31.147Z,99218.22
2022-10-26T13:14:02.420Z,99210.81
2022-10-26T13:16:29.702Z,99212.53
2022-10-26T13:18:57.265Z,99215.94
2022-10-26T13:21:25.027Z,99216.81
2022-10-26T13:24:05.539Z,99210.84
2022-10-26T13:26:33.676Z,99207.16
2022-10-26T13:29:02.962Z,99223.19
2022-10-26T13:31:50.024Z,99228.78
2022-10-26T13:34:20.923Z,99232.72
2022-10-26T13:37:14.037Z,99230.81
2022-10-26T13:39:46.168Z,99227.91
2022-10-26T13:42:21.637Z,99239.53
2022-10-26T13:45:07.190Z,99232.13
2022-10-26T13:47:43.821Z,99239.38
2022-10-26T13:50:26.418Z,99244.78
2022-10-26T13:52:59.782Z,99252.78
2022-10-26T13:55:32.813Z,99254.88
2022-10-26T13:58:29.681Z,99257.16
2022-10-26T14:01:21.664Z,99253.22
2022-10-26T14:03:51.322Z,99253.66
2022-10-26T14:06:38.256Z,99252.13
2022-10-26T14:09:07.356Z,99252.22
2022-10-26T14:11:37.375Z,99262.22
2022-10-26T14:14:04.894Z,99257.72
2022-10-26T14:16:33.773Z,99256.91
2022-10-26T14:19:00.991Z,99261.59
2022-10-26T14:21:27.872Z,99259.56
2022-10-26T14:23:57.953Z,99269.41
2022-10-26T14:26:51.036Z,99275.53
2022-10-26T14:29:20.796Z,99274.06
2022-10-26T14:31:49.347Z,99269.69
2022-10-26T14:34:17.162Z,99275.72
2022-10-26T14:36:57.577Z,99267.03
2022-10-26T14:39:41.057Z,99272.78
2022-10-26T14:42:25.975Z,99272.78
2022-10-26T14:44:53.034Z,99271.03
2022-10-26T14:47:35.899Z,99279.19
2022-10-26T14:50:06.128Z,99274.06
2022-10-26T14:52:35.581Z,99281.97
2022-10-26T14:55:21.039Z,99281.50
2022-10-26T14:57:49.509Z,99285.25
2022-10-26T15:00:19.582Z,99282.31
2022-10-26T15:05:39.085Z,99298.53
2022-10-26T15:08:52.367Z,99302.72
2022-10-26T15:11:23.934Z,99296.78
2022-10-26T15:13:50.748Z,99303.44
2022-10-26T15:16:29.149Z,99299.88
2022-10-26T15:18:58.694Z,99312.16
2022-10-26T15:21:35.314Z,99310.00
2022-10-26T15:24:02.418Z,99304.63
2022-10-26T15:26:29.938Z,99311.84
2022-10-26T15:28:57.058Z,99319.50
2022-10-26T15:31:34.011Z,99323.28
2022-10-26T15:34:13.042Z,99335.53
2022-10-26T15:36:40.841Z,99334.16
2022-10-26T15:39:07.544Z,99336.06
2022-10-26T15:41:40.019Z,99345.03
2022-10-26T15:44:15.012Z,99342.72
2022-10-26T15:46:41.939Z,99349.75
2022-10-26T15:49:14.242Z,99345.16
2022-10-26T15:51:41.003Z,99355.81
2022-10-26T15:54:07.849Z,99364.66
2022-10-26T15:56:34.922Z,99373.13
2022-10-26T15:59:01.796Z,99369.88
2022-10-26T16:01:29.568Z,99361.97
2022-10-26T16:03:56.406Z,99372.44
2022-10-26T16:06:34.980Z,99367.66
2022-10-26T16:09:03.904Z,99375.47
2022-10-26T16:11:30.844Z,99374.50
2022-10-26T16:14:01.079Z,99367.88
2022-10-26T16:16:30.810Z,99381.66
2022-10-26T16:19:18.509Z,99378.38
2022-10-26T16:21:44.692Z,99384.69
2022-10-26T16:24:11.417Z,99387.50
2022-10-26T16:26:38.638Z,99384.19
2022-10-26T16:29:05.431Z,99401.91
2022-10-26T16:31:32.157Z,99398.59
2022-10-26T16:34:01.701Z,99402.59
2022-10-26T16:36:34.470Z,99400.59
2022-10-26T16:41:29.424Z,99411.50
2022-10-26T16:43:56.745Z,99412.34
2022-10-26T16:46:23.914Z,99414.50
2022-10-26T16:48:51.281Z,99421.47
2022-10-26T16:51:23.027Z,99425.44
2022-10-26T16:53:53.433Z,99429.41
2022-10-26T16:56:22.898Z,99429.38
2022-10-26T16:58:50.005Z,99432.69
2022-10-26T17:01:18.460Z,99433.34
2022-10-26T17:03:46.644Z,99436.81
2022-10-26T17:06:13.521Z,99440.91
2022-10-26T17:08:40.687Z,99448.53
2022-10-26T17:11:17.726Z,99446.69
2022-10-26T17:13:45.291Z,99450.81
2022-10-26T17:16:14.872Z,99452.47
2022-10-26T17:18:42.286Z,99457.41
2022-10-26T17:21:10.513Z,99464.84
2022-10-26T17:23:37.643Z,99467.88
2022-10-26T17:26:06.376Z,99474.97
2022-10-26T17:28:33.784Z,99474.97
2022-10-26T17:31:16.802Z,99478.25
2022-10-26T17:33:44.769Z,99489.97
2022-10-26T17:36:13.623Z,99488.88
2022-10-26T17:38:41.955Z,99493.50
2022-10-26T17:41:10.783Z,99490.28
2022-10-26T17:43:38.965Z,99497.06
2022-10-26T17:46:27.498Z,99504.94
2022-10-26T17:48:59.156Z,99501.63
2022-10-26T17:51:27.032Z,99506.25
2022-10-26T17:53:54.349Z,99512.13
2022-10-26T17:56:23.113Z,99507.94
2022-10-26T17:58:54.924Z,99513.31
2022-10-26T18:01:22.058Z,99519.63
2022-10-26T18:03:49.054Z,99526.91
2022-10-26T18:06:17.487Z,99520.53
2022-10-26T18:08:53.925Z,99533.38
2022-10-26T18:11:26.976Z,99532.84
2022-10-26T18:13:57.826Z,99531.50
2022-10-26T18:16:27.865Z,99533.19
2022-10-26T18:19:01.529Z,99541.13
2022-10-26T18:21:30.688Z,99552.78
2022-10-26T18:24:00.684Z,99554.06
2022-10-26T18:26:31.299Z,99556.13
2022-10-26T18:28:59.011Z,99558.38
2022-10-26T18:31:26.935Z,99555.75
2022-10-26T18:34:01.385Z,99566.91
2022-10-26T18:36:28.953Z,99572.84
2022-10-26T18:38:56.244Z,99568.47
2022-10-26T18:41:23.904Z,99570.56
2022-10-26T18:43:52.275Z,99572.13
2022-10-26T18:46:24.427Z,99576.16
2022-10-26T18:48:51.989Z,99570.34
2022-10-26T18:51:21.393Z,99577.22
2022-10-26T18:53:48.705Z,99582.75
2022-10-26T18:56:18.191Z,99586.09
2022-10-26T18:58:50.770Z,99587.22
2022-10-26T19:01:23.393Z,99591.44
2022-10-26T19:06:39.039Z,99600.72
2022-10-26T19:09:06.683Z,99606.16
2022-10-26T19:11:33.949Z,99600.06
2022-10-26T19:14:00.793Z,99603.09
2022-10-26T19:16:47.237Z,99608.25
2022-10-26T19:19:18.310Z,99609.38
2022-10-26T19:21:46.703Z,99605.66
2022-10-26T19:24:19.179Z,99609.97
2022-10-26T19:26:46.254Z,99612.75
2022-10-26T19:29:15.506Z,99616.75
2022-10-26T19:31:44.189Z,99618.28
2022-10-26T19:34:11.847Z,99623.44
2022-10-26T19:36:39.933Z,99626.22
2022-10-26T19:39:07.654Z,99632.88
2022-10-26T19:41:34.312Z,99635.34
2022-10-26T19:44:01.258Z,99639.94
2022-10-26T19:46:29.883Z,99639.66
2022-10-26T19:49:01.125Z,99649.78
2022-10-26T19:51:29.775Z,99640.06
2022-10-26T19:54:02.091Z,99649.09
2022-10-26T19:56:30.930Z,99650.34
2022-10-26T19:58:57.707Z,99653.25
2022-10-26T20:01:25.031Z,99650.09
2022-10-26T20:03:51.979Z,99657.56
2022-10-26T20:06:18.979Z,99667.69
2022-10-26T20:08:48.369Z,99669.06
2022-10-26T20:11:16.924Z,99670.31
2022-10-26T20:13:45.182Z,99679.16
2022-10-26T20:16:12.443Z,99679.16
2022-10-26T20:18:43.982Z,99681.00
2022-10-26T20:21:14.699Z,99685.84
2022-10-26T20:23:41.783Z,99689.72
2022-10-26T20:26:08.804Z,99699.41
2022-10-26T20:28:35.672Z,99696.09
2022-10-26T20:31:02.449Z,99694.69
2022-10-26T20:33:29.345Z,99699.13
2022-10-26T20:35:57.902Z,99704.09
2022-10-26T20:38:24.968Z,99706.59
2022-10-26T20:40:59.226Z,99708.53
2022-10-26T20:43:27.463Z,99716.28
2022-10-26T20:45:56.515Z,99715.00
2022-10-26T20:48:24.006Z,99713.78
2022-10-26T20:50:57.454Z,99718.72
2022-10-26T20:53:30.272Z,99718.78
2022-10-26T20:56:04.909Z,99716.41
2022-10-26T20:58:56.055Z,99720.69
2022-10-26T21:01:34.390Z,99727.34
2022-10-26T21:04:02.916Z,99723.56
2022-10-26T21:06:29.954Z,99724.94
2022-10-26T21:08:57.557Z,99729.72
2022-10-26T21:11:25.439Z,99726.72
2022-10-26T21:13:53.695Z,99738.38
2022-10-26T21:18:47.132Z,99726.69
2022-10-26T21:21:13.763Z,99724.84
2022-10-26T21:23:41.151Z,99738.00
2022-10-26T21:26:08.779Z,99743.56
2022-10-26T21:28:41.811Z,99741.84
2022-10-26T21:31:13.908Z,99744.78
2022-10-26T21:33:41.009Z,99746.06
2022-10-26T21:36:09.854Z,99750.94
2022-10-26T21:38:36.678Z,99757.81
2022-10-26T21:41:14.650Z,99758.13
2022-10-26T21:43:42.975Z,99750.19
2022-10-26T21:46:10.593Z,99761.66
2022-10-26T21:48:41.453Z,99763.63
2022-10-26T21:51:12.065Z,99759.88
2022-10-26T21:53:39.244Z,99757.09
2022-10-26T21:56:14.263Z,99755.28
2022-10-26T21:58:41.131Z,99754.03
2022-10-26T22:01:10.365Z,99764.66
2022-10-26T22:03:37.833Z,99766.25
2022-10-26T22:06:05.595Z,99761.09
2022-10-26T22:08:32.905Z,99763.50
2022-10-26T22:11:10.574Z,99757.97
2022-10-26T22:13:40.576Z,99770.94
2022-10-26T22:16:12.833Z,99764.72
2022-10-26T22:18:41.259Z,99763.84
2022-10-26T22:21:08.651Z,99757.66
2022-10-26T22:23:37.153Z,99757.56
2022-10-26T22:26:05.957Z,99756.47
2022-10-26T22:28:40.012Z,99757.28
2022-10-26T22:31:12.379Z,99765.53
2022-10-26T22:33:39.087Z,99760.25
2022-10-26T22:36:15.866Z,99756.66
2022-10-26T22:38:42.879Z,99764.38
2022-10-26T22:41:10.719Z,99759.34
2022-10-26T22:43:37.986Z,99761.00
2022-10-26T22:46:15.518Z,99761.28
2022-10-26T22:48:45.547Z,99758.19
2022-10-26T22:51:14.617Z,99767.75
2022-10-26T22:53:41.679Z,99769.22
2022-10-26T22:56:10.063Z,99768.94
2022-10-26T22:58:37.634Z,99767.91
2022-10-26T23:01:13.014Z,99772.13
2022-10-26T23:03:40.266Z,99775.19
2022-10-26T23:06:08.489Z,99779.03
2022-10-26T23:08:35.355Z,99783.34
2022-10-26T23:11:04.959Z,99778.78
2022-10-26T23:13:32.060Z,99785.13
2022-10-26T23:16:13.147Z,99784.75
2022-10-26T23:18:40.479Z,99778.91
2022-10-26T23:21:08.795Z,99790.63
2022-10-26T23:23:36.459Z,99799.84
2022-10-26T23:26:14.363Z,99791.97
2022-10-26T23:28:41.867Z,99803.63
2022-10-26T23:31:09.360Z,99797.81
2022-10-26T23:33:36.044Z,99798.19
2022-10-26T23:36:02.785Z,99804.03
2022-10-26T23:38:29.845Z,99813.22
2022-10-26T23:40:58.510Z,99808.44
2022-10-26T23:43:26.430Z,99813.97
2022-10-26T23:45:53.566Z,99815.84
2022-10-26T23:48:20.667Z,99817.78
2022-10-26T23:50:49.122Z,99822.19
2022-10-26T23:53:17.391Z,99810.16
2022-10-26T23:55:45.148Z,99815.31
2022-10-26T23:58:12.006Z,99824.25
